LFOE

Évreux-Fauville (BA 105) Air Base Airport

Évreux/Fauville, France
TAF AMD LFOE 160523Z 1605/1703 22010KT 0600 FG VV/// BECMG 1606/1609 3000 BR BKN004 BECMG 1612/1614 6000 NSW BKN006 BECMG 1619/1621 BKN020 PROB40 TEMPO 1619/1622 23010G20KT 3000 SHRA BKN015TCU
Issued Valid From Valid To
Dec-16 @ 05:23 UTC
(29 minutes ago)
Dec-16 @ 05:00 UTC
(52 minutes ago)
Dec-17 @ 03:00 UTC
(in 21 hours)
Dec-16 @ 05:00 to Dec-16 @ 06:00
TAF AMD LFOE 160523Z 1605/1703 22010KT 0600 FG VV///
Wind Visibility Conditions
220° at 10 knots 595 meters
  • Fog
Becoming Dec-16 @ 06:00 to Dec-16 @ 12:00
BECMG 1606/1609 3000 BR BKN004
Wind Visibility Clouds Conditions
220° at 10 knots 2,993 meters
  • Broken at 400' AGL
  • Mist
Becoming Dec-16 @ 12:00 to Dec-16 @ 19:00
BECMG 1612/1614 6000 NSW BKN006
Wind Visibility Clouds Conditions
220° at 10 knots 6,003 meters
  • Broken at 600' AGL
Temporary  (Probability 40%) Dec-16 @ 19:00 to Dec-16 @ 22:00
PROB40 TEMPO 1619/1622 23010G20KT 3000 SHRA BKN015TCU
Wind Visibility Clouds Conditions
230° at 10 knots
 Gusting to 20 knots
2,993 meters
  • Broken at 1,500' AGL
  • Rain
Becoming Dec-16 @ 19:00 to Dec-17 @ 03:00
BECMG 1619/1621 BKN020
Wind Visibility Clouds Conditions
220° at 10 knots 6,003 meters
  • Broken at 2,000' AGL
TAF AMD LFOE 160523Z 1605/1703 22010KT 0600 FG VV/// BECMG 1606/1609 3000 BR BKN004 BECMG 1612/1614 6000 NSW BKN006 BECMG 1619/1621 BKN020 PROB40 TEMPO 1619/1622 23010G20KT 3000 SHRA BKN015TCU
Issued Dec-16 @ 05:23 UTC
(29 minutes ago)
Valid From Dec-16 @ 05:00 UTC
(52 minutes ago)
Valid To Dec-17 @ 03:00 UTC
(in 21 hours)
Dec-16 @ 05:00 - Dec-16 @ 06:00
Wind Visibility
220° at 10 knots 595 meters
Conditions
  • Fog
Becoming Dec-16 @ 06:00 - Dec-16 @ 12:00
Wind Visibility
220° at 10 knots 2,993 meters
Clouds
  • Broken at 400' AGL
Conditions
  • Mist
Becoming Dec-16 @ 12:00 - Dec-16 @ 19:00
Wind Visibility
220° at 10 knots 6,003 meters
Clouds
  • Broken at 600' AGL
Conditions
Probability 40% Temporary Dec-16 @ 19:00 - Dec-16 @ 22:00
Wind Visibility
230° at 10 knots
 Gusting to 20 knots
2,993 meters
Clouds
  • Broken at 1,500' AGL
Conditions
  • Rain
Becoming Dec-16 @ 19:00 - Dec-17 @ 03:00
Wind Visibility
220° at 10 knots 6,003 meters
Clouds
  • Broken at 2,000' AGL
Conditions